createdAt,value
2018-11-27T00:00:23.319Z,6.49
2018-11-27T00:01:23.530Z,6.45
2018-11-27T00:02:23.564Z,6.38
2018-11-27T00:03:23.759Z,6.37
2018-11-27T00:04:23.777Z,6.34
2018-11-27T00:05:23.906Z,6.38
2018-11-27T00:06:24.076Z,6.40
2018-11-27T00:07:24.217Z,6.43
2018-11-27T00:08:24.346Z,6.43
2018-11-27T00:09:24.474Z,6.46
2018-11-27T00:10:24.638Z,6.43
2018-11-27T00:11:24.764Z,6.31
2018-11-27T00:12:24.899Z,6.32
2018-11-27T00:13:25.034Z,6.38
2018-11-27T00:14:25.164Z,6.31
2018-11-27T00:15:25.287Z,6.27
2018-11-27T00:16:25.417Z,6.30
2018-11-27T00:17:25.547Z,6.15
2018-11-27T00:18:25.732Z,6.28
2018-11-27T00:19:25.850Z,6.12
2018-11-27T00:20:25.978Z,6.11
2018-11-27T00:21:26.115Z,6.12
2018-11-27T00:22:26.265Z,6.19
2018-11-27T00:23:26.389Z,6.13
2018-11-27T00:24:26.525Z,6.11
2018-11-27T00:25:26.654Z,6.19
2018-11-27T00:26:27.714Z,6.05
2018-11-27T00:27:26.932Z,6.13
2018-11-27T00:28:27.060Z,6.13
2018-11-27T00:29:27.208Z,6.25
2018-11-27T00:30:27.341Z,6.24
2018-11-27T00:31:27.471Z,6.13
2018-11-27T00:32:27.619Z,6.21
2018-11-27T00:33:27.745Z,6.16
2018-11-27T00:34:27.875Z,6.09
2018-11-27T00:35:28.017Z,6.18
2018-11-27T00:36:28.176Z,6.19
2018-11-27T00:37:28.307Z,6.25
2018-11-27T00:38:28.436Z,6.31
2018-11-27T00:39:28.564Z,6.42
2018-11-27T00:40:28.705Z,6.28
2018-11-27T00:41:28.827Z,6.34
2018-11-27T00:42:28.955Z,6.25
2018-11-27T00:43:29.089Z,6.11
2018-11-27T00:44:29.245Z,6.11
2018-11-27T00:45:29.367Z,6.15
2018-11-27T00:46:29.500Z,6.18
2018-11-27T00:47:29.635Z,6.31
2018-11-27T00:48:29.798Z,6.30
2018-11-27T00:49:29.932Z,6.34
2018-11-27T00:50:30.060Z,6.35
2018-11-27T00:51:30.190Z,6.38
2018-11-27T00:52:30.360Z,6.47
2018-11-27T00:53:30.470Z,6.43
2018-11-27T00:54:30.594Z,6.38
2018-11-27T00:55:30.733Z,6.32
2018-11-27T00:56:30.909Z,6.34
2018-11-27T00:57:31.030Z,6.35
2018-11-27T00:58:31.161Z,6.32
2018-11-27T00:59:31.289Z,6.31
2018-11-27T01:00:31.464Z,6.13
2018-11-27T01:01:31.589Z,6.34
2018-11-27T01:02:31.722Z,6.31
2018-11-27T01:03:31.846Z,6.35
2018-11-27T01:04:31.991Z,6.31
2018-11-27T01:05:32.125Z,6.40
2018-11-27T01:06:32.258Z,6.40
2018-11-27T01:07:32.386Z,6.38
2018-11-27T01:08:32.524Z,6.34
2018-11-27T01:09:32.645Z,6.35
2018-11-27T01:10:32.774Z,6.35
2018-11-27T01:11:32.904Z,6.42
2018-11-27T01:12:33.045Z,6.43
2018-11-27T01:13:33.175Z,6.42
2018-11-27T01:14:33.300Z,6.45
2018-11-27T01:15:33.475Z,6.46
2018-11-27T01:16:33.611Z,6.55
2018-11-27T01:17:33.728Z,6.53
2018-11-27T01:18:33.861Z,6.49
2018-11-27T01:19:33.991Z,6.46
2018-11-27T01:20:34.155Z,6.52
2018-11-27T01:21:34.260Z,6.49
2018-11-27T01:22:34.393Z,6.49
2018-11-27T01:23:34.529Z,6.49
2018-11-27T01:24:34.691Z,6.49
2018-11-27T01:25:34.816Z,6.50
2018-11-27T01:26:34.947Z,6.45
2018-11-27T01:27:35.110Z,6.52
2018-11-27T01:28:35.236Z,6.56
2018-11-27T01:29:35.375Z,6.50
2018-11-27T01:30:35.501Z,6.45
2018-11-27T01:31:35.645Z,6.55
2018-11-27T01:32:35.771Z,6.45
2018-11-27T01:33:35.902Z,6.45
2018-11-27T01:34:36.030Z,6.43
2018-11-27T01:35:36.193Z,6.37
2018-11-27T01:36:36.319Z,6.43
2018-11-27T01:37:36.447Z,6.45
2018-11-27T01:38:36.575Z,6.35
2018-11-27T01:39:36.736Z,6.42
2018-11-27T01:40:36.878Z,6.37
2018-11-27T01:41:37.009Z,6.32
2018-11-27T01:42:37.146Z,6.32
2018-11-27T01:43:37.310Z,6.40
2018-11-27T01:44:37.520Z,6.37
2018-11-27T01:45:37.525Z,6.30
2018-11-27T01:46:37.662Z,6.31
2018-11-27T01:47:37.821Z,6.30
2018-11-27T01:48:37.947Z,6.16
2018-11-27T01:49:38.077Z,6.35
2018-11-27T01:50:38.203Z,6.35
2018-11-27T01:51:38.354Z,6.34
2018-11-27T01:52:38.479Z,6.34
2018-11-27T01:53:38.612Z,6.43
2018-11-27T01:54:38.743Z,6.42
2018-11-27T01:55:38.909Z,6.34
2018-11-27T01:56:39.002Z,6.34
2018-11-27T01:57:39.135Z,6.35
2018-11-27T01:58:39.260Z,6.30
2018-11-27T01:59:39.407Z,6.34
2018-11-27T02:00:39.531Z,6.31
2018-11-27T02:01:39.657Z,6.32
2018-11-27T02:02:39.789Z,6.27
2018-11-27T02:03:39.943Z,6.12
2018-11-27T02:04:40.066Z,6.19
2018-11-27T02:05:40.192Z,6.25
2018-11-27T02:06:40.325Z,6.25
2018-11-27T02:07:40.485Z,6.21
2018-11-27T02:08:40.612Z,6.18
2018-11-27T02:09:40.743Z,6.15
2018-11-27T02:10:40.880Z,6.21
2018-11-27T02:11:41.047Z,6.06
2018-11-27T02:12:41.194Z,6.21
2018-11-27T02:13:41.902Z,6.21
2018-11-27T02:14:41.422Z,6.11
2018-11-27T02:15:41.622Z,6.13
2018-11-27T02:16:41.627Z,6.21
2018-11-27T02:17:41.757Z,6.30
2018-11-27T02:18:41.897Z,6.11
2018-11-27T02:19:42.021Z,6.13
2018-11-27T02:20:42.151Z,6.30
2018-11-27T02:21:42.282Z,6.31
2018-11-27T02:22:42.425Z,6.28
2018-11-27T02:23:42.554Z,6.18
2018-11-27T02:24:42.680Z,6.12
2018-11-27T02:25:42.825Z,6.12
2018-11-27T02:26:43.025Z,6.19
2018-11-27T02:27:43.086Z,6.16
2018-11-27T02:28:43.215Z,6.21
2018-11-27T02:29:43.364Z,6.21
2018-11-27T02:30:43.538Z,6.09
2018-11-27T02:31:43.666Z,6.13
2018-11-27T02:32:43.795Z,6.27
2018-11-27T02:33:43.950Z,6.18
2018-11-27T02:34:44.078Z,6.31
2018-11-27T02:35:44.205Z,6.31
2018-11-27T02:36:44.340Z,6.16
2018-11-27T02:37:44.483Z,6.19
2018-11-27T02:38:44.608Z,6.16
2018-11-27T02:39:44.732Z,6.24
2018-11-27T02:40:44.871Z,6.16
2018-11-27T02:41:45.000Z,6.27
2018-11-27T02:42:45.124Z,6.28
2018-11-27T02:43:45.291Z,6.27
2018-11-27T02:44:45.424Z,6.24
2018-11-27T02:45:45.548Z,6.18
2018-11-27T02:46:45.762Z,6.18
2018-11-27T02:47:45.761Z,6.16
2018-11-27T02:48:45.887Z,6.21
2018-11-27T02:49:46.019Z,6.18
2018-11-27T02:50:46.148Z,6.18
2018-11-27T02:51:46.303Z,6.15
2018-11-27T02:52:46.429Z,6.18
2018-11-27T02:53:46.557Z,6.16
2018-11-27T02:54:46.683Z,6.18
2018-11-27T02:55:46.817Z,6.00
2018-11-27T02:56:46.961Z,6.24
2018-11-27T02:57:47.087Z,6.16
2018-11-27T02:58:47.215Z,6.28
2018-11-27T02:59:47.344Z,6.24
2018-11-27T03:00:47.475Z,6.18
2018-11-27T03:01:47.604Z,6.18
2018-11-27T03:02:47.734Z,6.24
2018-11-27T03:03:47.870Z,6.11
2018-11-27T03:04:47.997Z,6.16
2018-11-27T03:05:48.127Z,6.13
2018-11-27T03:06:48.250Z,6.15
2018-11-27T03:07:48.380Z,6.21
2018-11-27T03:08:48.509Z,6.15
2018-11-27T03:09:48.638Z,6.09
2018-11-27T03:10:48.762Z,6.12
2018-11-27T03:11:48.898Z,6.09
2018-11-27T03:12:49.027Z,6.11
2018-11-27T03:13:49.158Z,6.16
2018-11-27T03:14:49.288Z,6.19
2018-11-27T03:15:49.446Z,6.13
2018-11-27T03:16:49.582Z,6.15
2018-11-27T03:17:49.708Z,6.19
2018-11-27T03:18:49.835Z,6.18
2018-11-27T03:19:49.967Z,6.18
2018-11-27T03:20:50.095Z,6.13
2018-11-27T03:21:50.264Z,6.19
2018-11-27T03:22:50.383Z,6.19
2018-11-27T03:23:50.515Z,6.16
2018-11-27T03:24:50.645Z,6.15
2018-11-27T03:25:50.780Z,6.15
2018-11-27T03:26:50.907Z,6.19
2018-11-27T03:27:51.034Z,6.25
2018-11-27T03:28:51.168Z,6.31
2018-11-27T03:29:51.296Z,6.37
2018-11-27T03:30:51.456Z,6.35
2018-11-27T03:31:51.585Z,6.31
2018-11-27T03:32:51.800Z,6.16
2018-11-27T03:33:51.838Z,6.30
2018-11-27T03:34:52.009Z,6.32
2018-11-27T03:35:52.134Z,6.34
2018-11-27T03:36:52.267Z,6.15
2018-11-27T03:37:52.395Z,6.18
2018-11-27T03:38:52.539Z,6.31
2018-11-27T03:39:52.734Z,6.27
2018-11-27T03:40:52.746Z,6.09
2018-11-27T03:41:52.875Z,6.12
2018-11-27T03:42:53.026Z,6.02
2018-11-27T03:43:53.148Z,5.95
2018-11-27T03:44:53.279Z,5.93
2018-11-27T03:45:53.412Z,6.02
2018-11-27T03:46:53.561Z,6.09
2018-11-27T03:47:53.695Z,6.09
2018-11-27T03:48:53.816Z,6.11
2018-11-27T03:49:53.950Z,6.12
2018-11-27T03:50:54.089Z,6.02
2018-11-27T03:51:54.249Z,6.02
2018-11-27T03:52:54.417Z,6.02
2018-11-27T03:53:54.513Z,6.05
2018-11-27T03:54:54.668Z,6.05
2018-11-27T03:55:54.795Z,6.13
2018-11-27T03:56:54.923Z,6.15
2018-11-27T03:57:55.060Z,6.09
2018-11-27T03:58:55.196Z,6.24
2018-11-27T03:59:55.353Z,6.16
2018-11-27T04:00:55.491Z,6.21
2018-11-27T04:01:55.613Z,6.15
2018-11-27T04:02:55.832Z,6.19
2018-11-27T04:03:55.892Z,6.21
2018-11-27T04:04:56.025Z,6.27
2018-11-27T04:05:56.153Z,6.16
2018-11-27T04:06:56.316Z,6.15
2018-11-27T04:07:56.440Z,6.30
2018-11-27T04:08:56.565Z,6.08
2018-11-27T04:09:56.697Z,6.19
2018-11-27T04:10:56.882Z,6.19
2018-11-27T04:11:57.023Z,6.15
2018-11-27T04:12:57.155Z,6.21
2018-11-27T04:13:57.290Z,6.19
2018-11-27T04:14:57.531Z,6.16
2018-11-27T04:15:57.537Z,6.18
2018-11-27T04:16:57.658Z,6.21
2018-11-27T04:17:57.787Z,6.16
2018-11-27T04:18:57.935Z,6.13
2018-11-27T04:19:58.063Z,6.28
2018-11-27T04:20:58.191Z,6.12
2018-11-27T04:21:58.318Z,6.15
2018-11-27T04:22:58.500Z,6.13
2018-11-27T04:23:58.622Z,6.09
2018-11-27T04:24:58.753Z,6.21
2018-11-27T04:25:58.881Z,6.27
2018-11-27T04:26:59.012Z,6.15
2018-11-27T04:27:59.136Z,6.18
2018-11-27T04:28:59.285Z,6.15
2018-11-27T04:29:59.412Z,6.13
2018-11-27T04:30:59.541Z,6.34
2018-11-27T04:31:59.748Z,6.24
2018-11-27T04:32:59.758Z,6.32
2018-11-27T04:33:59.886Z,6.27
2018-11-27T04:35:00.032Z,6.24
2018-11-27T04:36:00.157Z,6.12
2018-11-27T04:37:00.287Z,6.03
2018-11-27T04:38:00.421Z,6.18
2018-11-27T04:39:00.542Z,6.09
2018-11-27T04:40:00.672Z,6.15
2018-11-27T04:41:00.818Z,6.09
2018-11-27T04:42:00.939Z,6.16
2018-11-27T04:43:01.067Z,6.21
2018-11-27T04:44:01.202Z,6.16
2018-11-27T04:45:01.335Z,6.18
2018-11-27T04:46:01.463Z,6.13
2018-11-27T04:47:01.593Z,6.18
2018-11-27T04:48:01.727Z,6.05
2018-11-27T04:49:01.870Z,6.21
2018-11-27T04:50:02.010Z,6.09
2018-11-27T04:51:02.141Z,5.94
2018-11-27T04:52:02.277Z,5.98
2018-11-27T04:53:02.408Z,5.95
2018-11-27T04:54:02.555Z,5.91
2018-11-27T04:55:02.679Z,5.88
2018-11-27T04:56:02.817Z,6.00
2018-11-27T04:57:02.935Z,5.94
2018-11-27T04:58:03.083Z,5.91
2018-11-27T04:59:03.205Z,5.91
2018-11-27T05:00:03.333Z,5.91
2018-11-27T05:01:03.462Z,5.97
2018-11-27T05:02:03.591Z,5.88
2018-11-27T05:03:03.738Z,5.85
2018-11-27T05:04:03.869Z,5.93
2018-11-27T05:05:03.997Z,5.79
2018-11-27T05:06:04.151Z,5.94
2018-11-27T05:07:04.278Z,5.72
2018-11-27T05:08:04.409Z,5.66
2018-11-27T05:09:04.543Z,5.75
2018-11-27T05:10:04.702Z,5.70
2018-11-27T05:11:04.829Z,5.57
2018-11-27T05:12:04.959Z,5.67
2018-11-27T05:13:05.090Z,5.54
2018-11-27T05:14:05.232Z,5.52
2018-11-27T05:15:05.888Z,5.65
2018-11-27T05:16:05.547Z,5.59
2018-11-27T05:17:05.670Z,5.58
2018-11-27T05:18:05.798Z,5.72
2018-11-27T05:19:05.928Z,5.66
2018-11-27T05:20:06.063Z,5.66
2018-11-27T05:21:06.216Z,5.57
2018-11-27T05:22:06.342Z,5.61
2018-11-27T05:23:06.471Z,5.52
2018-11-27T05:24:06.603Z,5.57
2018-11-27T05:25:06.734Z,5.57
2018-11-27T05:26:06.867Z,5.65
2018-11-27T05:27:06.997Z,5.61
2018-11-27T05:28:07.128Z,5.66
2018-11-27T05:29:07.255Z,5.57
2018-11-27T05:30:07.400Z,5.61
2018-11-27T05:31:07.522Z,5.66
2018-11-27T05:32:07.654Z,5.62
2018-11-27T05:33:07.781Z,5.62
2018-11-27T05:34:07.946Z,5.75
2018-11-27T05:35:08.070Z,5.79
2018-11-27T05:36:08.198Z,5.72
2018-11-27T05:37:08.329Z,5.82
2018-11-27T05:38:08.459Z,5.94
2018-11-27T05:39:08.593Z,5.90
2018-11-27T05:40:08.751Z,5.94
2018-11-27T05:41:08.885Z,5.90
2018-11-27T05:42:09.014Z,5.95
2018-11-27T05:43:09.145Z,5.90
2018-11-27T05:44:09.387Z,5.97
2018-11-27T05:45:09.446Z,5.93
2018-11-27T05:46:09.579Z,5.76
2018-11-27T05:47:09.738Z,5.91
2018-11-27T05:48:09.865Z,5.75
2018-11-27T05:49:10.003Z,5.69
2018-11-27T05:50:10.128Z,5.72
2018-11-27T05:51:10.258Z,5.55
2018-11-27T05:52:10.386Z,5.47
2018-11-27T05:53:10.541Z,5.39
2018-11-27T05:54:10.670Z,5.40
2018-11-27T05:55:10.796Z,5.47
2018-11-27T05:56:10.938Z,5.57
2018-11-27T05:57:11.091Z,5.57
2018-11-27T05:58:11.214Z,5.44
2018-11-27T05:59:11.348Z,5.33
2018-11-27T06:00:11.494Z,5.33
2018-11-27T06:01:11.642Z,5.36
2018-11-27T06:02:11.773Z,5.25
2018-11-27T06:03:11.931Z,5.30
2018-11-27T06:04:12.057Z,5.37
2018-11-27T06:05:12.213Z,5.39
2018-11-27T06:06:12.336Z,5.37
2018-11-27T06:07:12.466Z,5.51
2018-11-27T06:08:12.617Z,5.54
2018-11-27T06:09:12.748Z,5.50
2018-11-27T06:10:12.878Z,5.58
2018-11-27T06:11:13.027Z,5.40
2018-11-27T06:12:13.150Z,5.48
2018-11-27T06:13:13.304Z,5.52
2018-11-27T06:14:13.431Z,5.36
2018-11-27T06:15:13.579Z,5.47
2018-11-27T06:16:13.713Z,5.40
2018-11-27T06:17:13.841Z,5.40
2018-11-27T06:18:13.970Z,5.21
2018-11-27T06:19:14.145Z,5.15
2018-11-27T06:20:14.271Z,5.07
2018-11-27T06:21:14.401Z,5.11
2018-11-27T06:22:14.526Z,5.18
2018-11-27T06:23:14.677Z,5.12
2018-11-27T06:24:14.806Z,5.01
2018-11-27T06:25:14.957Z,4.88
2018-11-27T06:26:15.064Z,4.93
2018-11-27T06:27:15.199Z,4.93
2018-11-27T06:28:15.323Z,4.94
2018-11-27T06:29:15.462Z,5.00
2018-11-27T06:30:15.586Z,5.07
2018-11-27T06:31:15.716Z,5.16
2018-11-27T06:32:21.281Z,5.22
2018-11-27T06:33:15.975Z,5.16
2018-11-27T06:34:16.102Z,5.22
2018-11-27T06:35:16.231Z,5.30
2018-11-27T06:36:16.364Z,5.36
2018-11-27T06:37:16.490Z,5.37
2018-11-27T06:38:16.617Z,5.40
2018-11-27T06:39:16.754Z,5.52
2018-11-27T06:40:16.883Z,5.48
2018-11-27T06:41:17.006Z,5.44
2018-11-27T06:42:17.173Z,5.36
2018-11-27T06:43:17.330Z,5.51
2018-11-27T06:44:17.499Z,5.41
2018-11-27T06:45:18.580Z,5.33
2018-11-27T06:46:17.740Z,5.36
2018-11-27T06:47:17.868Z,5.50
2018-11-27T06:48:17.998Z,5.37
2018-11-27T06:49:18.139Z,5.19
2018-11-27T06:50:18.266Z,5.15
2018-11-27T06:51:18.410Z,5.09
2018-11-27T06:52:18.540Z,4.91
2018-11-27T06:53:18.700Z,4.82
2018-11-27T06:54:18.805Z,4.85
2018-11-27T06:55:18.933Z,4.91
2018-11-27T06:56:19.064Z,4.98
2018-11-27T06:57:19.201Z,5.04
2018-11-27T06:58:19.335Z,5.07
2018-11-27T06:59:19.491Z,5.11
2018-11-27T07:00:19.617Z,4.98
2018-11-27T07:01:19.745Z,4.98
2018-11-27T07:02:19.881Z,4.94
2018-11-27T07:03:20.025Z,4.94
2018-11-27T07:04:20.137Z,4.94
2018-11-27T07:05:20.264Z,4.77
2018-11-27T07:06:20.400Z,4.72
2018-11-27T07:07:20.525Z,4.78
2018-11-27T07:08:20.653Z,4.78
2018-11-27T07:09:20.783Z,4.82
2018-11-27T07:10:20.913Z,4.78
2018-11-27T07:11:21.045Z,4.67
2018-11-27T07:12:21.170Z,4.89
2018-11-27T07:13:21.300Z,4.85
2018-11-27T07:14:21.426Z,4.74
2018-11-27T07:15:21.555Z,4.67
2018-11-27T07:16:21.692Z,4.69
2018-11-27T07:17:21.819Z,4.75
2018-11-27T07:18:21.947Z,4.69
2018-11-27T07:19:22.075Z,4.67
2018-11-27T07:20:22.232Z,4.69
2018-11-27T07:21:22.361Z,4.74
2018-11-27T07:22:22.489Z,4.75
2018-11-27T07:23:22.615Z,4.77
2018-11-27T07:24:22.750Z,4.66
2018-11-27T07:25:22.872Z,4.67
2018-11-27T07:26:23.000Z,4.69
2018-11-27T07:27:23.135Z,4.75
2018-11-27T07:28:24.084Z,4.69
2018-11-27T07:29:23.388Z,4.67
2018-11-27T07:30:23.551Z,4.71
2018-11-27T07:31:23.635Z,4.69
2018-11-27T07:32:23.790Z,4.83
2018-11-27T07:33:23.913Z,4.78
2018-11-27T07:34:24.043Z,4.91
2018-11-27T07:35:24.167Z,5.01
2018-11-27T07:36:24.298Z,5.14
2018-11-27T07:37:24.426Z,5.01
2018-11-27T07:38:24.560Z,4.94
2018-11-27T07:39:24.731Z,4.79
2018-11-27T07:40:24.857Z,4.83
2018-11-27T07:41:25.122Z,4.77
2018-11-27T07:42:25.078Z,4.79
2018-11-27T07:43:25.278Z,4.67
2018-11-27T07:44:25.387Z,4.56
2018-11-27T07:45:27.488Z,4.67
2018-11-27T07:46:25.891Z,4.79
2018-11-27T07:47:25.789Z,4.66
2018-11-27T07:48:26.002Z,4.67
2018-11-27T07:49:25.999Z,4.63
2018-11-27T07:50:26.135Z,4.63
2018-11-27T07:51:26.261Z,4.60
2018-11-27T07:52:26.391Z,4.60
2018-11-27T07:53:26.534Z,4.59
2018-11-27T07:54:26.657Z,4.63
2018-11-27T07:55:27.167Z,4.74
2018-11-27T07:56:26.967Z,4.69
2018-11-27T07:57:27.085Z,4.72
2018-11-27T07:58:27.213Z,4.57
2018-11-27T07:59:27.342Z,4.60
2018-11-27T08:00:27.517Z,4.60
2018-11-27T08:01:27.640Z,4.60
2018-11-27T08:02:27.767Z,4.61
2018-11-27T08:03:27.897Z,4.51
2018-11-27T08:04:28.044Z,4.57
2018-11-27T08:05:28.176Z,4.59
2018-11-27T08:06:28.306Z,4.54
2018-11-27T08:07:28.429Z,4.63
2018-11-27T08:08:28.599Z,4.60
2018-11-27T08:09:28.724Z,4.71
2018-11-27T08:10:28.847Z,4.71
2018-11-27T08:11:28.976Z,4.72
2018-11-27T08:12:29.158Z,4.77
2018-11-27T08:13:29.281Z,4.78
2018-11-27T08:14:29.472Z,4.85
2018-11-27T08:15:29.472Z,4.78
2018-11-27T08:16:29.628Z,4.93
2018-11-27T08:17:29.817Z,4.94
2018-11-27T08:18:30.416Z,4.94
2018-11-27T08:19:29.946Z,5.00
2018-11-27T08:20:30.109Z,5.09
2018-11-27T08:21:30.233Z,5.15
2018-11-27T08:22:30.364Z,5.14
2018-11-27T08:23:30.493Z,5.14
2018-11-27T08:24:30.646Z,5.18
2018-11-27T08:25:30.774Z,5.24
2018-11-27T08:26:30.902Z,5.25
2018-11-27T08:27:31.031Z,5.33
2018-11-27T08:28:31.196Z,5.30
2018-11-27T08:29:31.433Z,5.33
2018-11-27T08:30:31.439Z,5.27
2018-11-27T08:31:32.415Z,5.41
2018-11-27T08:32:31.703Z,5.39
2018-11-27T08:33:31.837Z,5.40
2018-11-27T08:34:31.959Z,5.43
2018-11-27T08:35:32.093Z,5.51
2018-11-27T08:36:32.228Z,5.51
2018-11-27T08:37:32.363Z,5.54
2018-11-27T08:38:32.490Z,5.65
2018-11-27T08:39:32.645Z,5.61
2018-11-27T08:40:32.772Z,5.58
2018-11-27T08:41:40.417Z,5.55
2018-11-27T08:42:33.027Z,5.50
2018-11-27T08:43:33.178Z,5.47
2018-11-27T08:44:33.301Z,5.40
2018-11-27T08:45:33.431Z,5.41
2018-11-27T08:46:33.561Z,5.50
2018-11-27T08:47:33.707Z,5.52
2018-11-27T08:48:35.077Z,5.58
2018-11-27T08:49:33.974Z,5.54
2018-11-27T08:50:34.102Z,5.51
2018-11-27T08:51:34.248Z,5.44
2018-11-27T08:52:34.383Z,5.59
2018-11-27T08:53:34.515Z,5.37
2018-11-27T08:54:34.643Z,5.32
2018-11-27T08:55:34.792Z,5.37
2018-11-27T08:56:34.992Z,5.27
2018-11-27T08:57:34.994Z,5.16
2018-11-27T08:58:36.185Z,5.21
2018-11-27T08:59:35.286Z,5.32
2018-11-27T09:00:35.413Z,5.29
2018-11-27T09:01:35.543Z,5.22
2018-11-27T09:02:35.675Z,5.25
2018-11-27T09:03:35.854Z,5.11
2018-11-27T09:04:35.984Z,5.09
2018-11-27T09:05:36.113Z,5.19
2018-11-27T09:06:36.240Z,5.14
2018-11-27T09:07:36.406Z,5.07
2018-11-27T09:08:36.528Z,5.07
2018-11-27T09:09:36.661Z,5.03
2018-11-27T09:10:36.794Z,5.14
2018-11-27T09:11:36.948Z,5.18
2018-11-27T09:12:37.079Z,5.15
2018-11-27T09:13:37.252Z,5.07
2018-11-27T09:16:09.871Z,5.07
2018-11-27T09:17:10.005Z,5.06
2018-11-27T09:18:10.175Z,5.15
2018-11-27T09:19:10.314Z,5.30
2018-11-27T09:20:10.446Z,5.27
2018-11-27T09:21:10.575Z,5.27
2018-11-27T09:22:12.696Z,5.27
2018-11-27T09:23:10.892Z,5.34
2018-11-27T09:24:11.014Z,5.27
2018-11-27T09:25:11.145Z,5.39
2018-11-27T09:26:11.273Z,5.39
2018-11-27T09:27:11.422Z,5.41
2018-11-27T09:28:11.659Z,5.50
2018-11-27T09:29:11.664Z,5.50
2018-11-27T09:30:11.795Z,5.52
2018-11-27T09:31:11.953Z,5.62
2018-11-27T09:32:12.078Z,5.54
2018-11-27T09:33:12.210Z,5.55
2018-11-27T09:34:12.352Z,5.54
2018-11-27T09:35:12.477Z,5.61
2018-11-27T09:36:12.610Z,5.52
2018-11-27T09:37:12.740Z,5.61
2018-11-27T09:38:12.902Z,5.66
2018-11-27T09:39:13.026Z,5.52
2018-11-27T09:40:13.210Z,5.52
2018-11-27T09:41:13.319Z,5.59
2018-11-27T09:42:13.505Z,5.47
2018-11-27T09:43:13.509Z,5.54
2018-11-27T09:44:13.634Z,5.57
2018-11-27T09:45:13.789Z,5.52
2018-11-27T09:46:13.918Z,5.61
2018-11-27T09:47:14.052Z,5.65
2018-11-27T09:48:14.172Z,5.57
2018-11-27T09:49:14.306Z,5.59
2018-11-27T09:50:14.447Z,5.57
2018-11-27T09:51:14.576Z,5.51
2018-11-27T09:52:14.706Z,5.55
2018-11-27T09:53:14.858Z,5.58
2018-11-27T09:54:14.986Z,5.58
2018-11-27T09:55:15.115Z,5.54
2018-11-27T09:56:15.290Z,5.51
2018-11-27T09:57:15.433Z,5.58
2018-11-27T09:58:15.559Z,5.69
2018-11-27T09:59:15.706Z,5.62
2018-11-27T10:00:15.845Z,5.57
2018-11-27T10:01:15.974Z,5.58
2018-11-27T10:02:16.110Z,5.61
2018-11-27T10:03:16.238Z,5.55
2018-11-27T10:04:16.383Z,5.52
2018-11-27T10:05:16.513Z,5.41
2018-11-27T10:06:16.645Z,5.41
2018-11-27T10:07:16.770Z,5.37
2018-11-27T10:08:16.912Z,5.43
2018-11-27T10:09:17.152Z,5.55
2018-11-27T10:10:17.173Z,5.55
2018-11-27T10:11:17.295Z,5.44
2018-11-27T10:12:17.431Z,5.48
2018-11-27T10:13:17.558Z,5.51
2018-11-27T10:14:17.689Z,5.40
2018-11-27T10:15:17.819Z,5.43
2018-11-27T10:16:17.968Z,5.54
2018-11-27T10:17:18.088Z,5.57
2018-11-27T10:18:18.213Z,5.40
2018-11-27T10:19:18.342Z,5.48
2018-11-27T10:20:18.494Z,5.57
2018-11-27T10:21:18.619Z,5.47
2018-11-27T10:22:18.745Z,5.54
2018-11-27T10:23:18.901Z,5.61
2018-11-27T10:24:19.024Z,5.59
2018-11-27T10:25:19.155Z,5.57
2018-11-27T10:26:19.292Z,5.58
2018-11-27T10:27:19.453Z,5.59
2018-11-27T10:28:19.585Z,5.72
2018-11-27T10:29:19.714Z,5.75
2018-11-27T10:30:19.844Z,5.79
2018-11-27T10:31:20.008Z,5.70
2018-11-27T10:32:20.180Z,5.79
2018-11-27T10:33:20.305Z,5.97
2018-11-27T10:34:20.436Z,5.72
2018-11-27T10:35:20.585Z,5.93
2018-11-27T10:36:20.714Z,5.88
2018-11-27T10:37:20.872Z,5.80
2018-11-27T10:38:21.009Z,5.98
2018-11-27T10:39:21.139Z,5.94
2018-11-27T10:40:21.266Z,6.02
2018-11-27T10:41:21.405Z,6.16
2018-11-27T10:42:21.571Z,6.19
2018-11-27T10:43:21.706Z,6.16
2018-11-27T10:44:21.833Z,6.21
2018-11-27T10:45:21.972Z,6.24
2018-11-27T10:46:22.095Z,6.11
2018-11-27T10:47:22.228Z,6.18
2018-11-27T10:48:22.360Z,6.09
2018-11-27T10:49:22.511Z,6.12
2018-11-27T10:50:22.720Z,6.08
2018-11-27T10:51:22.767Z,6.05
2018-11-27T10:52:22.896Z,6.09
2018-11-27T10:53:23.025Z,5.91
2018-11-27T10:54:23.156Z,5.94
2018-11-27T10:55:23.285Z,5.87
2018-11-27T10:56:23.430Z,6.08
2018-11-27T10:57:23.557Z,6.06
2018-11-27T10:58:23.695Z,6.06
2018-11-27T10:59:23.821Z,6.02
2018-11-27T11:00:24.000Z,5.93
2018-11-27T11:01:24.029Z,6.02
2018-11-27T11:02:24.162Z,6.03
2018-11-27T11:03:24.293Z,5.98
2018-11-27T11:04:24.445Z,6.09
2018-11-27T11:05:24.545Z,5.95
2018-11-27T11:06:24.676Z,6.03
2018-11-27T11:07:24.819Z,6.03
2018-11-27T11:08:24.938Z,6.12
2018-11-27T11:09:25.066Z,6.09
2018-11-27T11:10:25.200Z,6.00
2018-11-27T11:11:25.331Z,6.08
2018-11-27T11:12:25.469Z,6.06
2018-11-27T11:13:25.720Z,6.06
2018-11-27T11:14:25.718Z,6.16
2018-11-27T11:15:25.847Z,6.13
2018-11-27T11:16:25.977Z,6.13
2018-11-27T11:17:26.133Z,6.09
2018-11-27T11:18:26.261Z,6.09
2018-11-27T11:19:26.389Z,6.13
2018-11-27T11:20:26.516Z,6.25
2018-11-27T11:21:26.650Z,6.16
2018-11-27T11:22:26.786Z,6.18
2018-11-27T11:23:26.916Z,6.21
2018-11-27T11:24:27.046Z,6.21
2018-11-27T11:25:27.178Z,6.24
2018-11-27T11:26:27.307Z,6.18
2018-11-27T11:27:27.437Z,6.21
2018-11-27T11:28:27.596Z,6.13
2018-11-27T11:29:27.703Z,6.12
2018-11-27T11:30:27.847Z,6.18
2018-11-27T11:31:27.965Z,6.19
2018-11-27T11:32:28.101Z,6.12
2018-11-27T11:33:28.233Z,6.28
2018-11-27T11:34:28.370Z,6.31
2018-11-27T11:35:28.503Z,6.09
2018-11-27T11:36:28.630Z,5.97
2018-11-27T11:37:28.784Z,6.05
2018-11-27T11:38:28.923Z,6.08
2018-11-27T11:39:29.054Z,6.03
2018-11-27T11:40:29.184Z,6.09
2018-11-27T11:41:31.399Z,6.13
2018-11-27T11:42:29.448Z,6.11
2018-11-27T11:43:29.577Z,6.02
2018-11-27T11:44:29.701Z,5.94
2018-11-27T11:45:29.871Z,5.93
2018-11-27T11:46:30.000Z,5.98
2018-11-27T11:47:30.130Z,6.00
2018-11-27T11:48:30.266Z,6.02
2018-11-27T11:49:30.391Z,6.06
2018-11-27T11:50:30.525Z,6.00
2018-11-27T11:51:30.647Z,6.03
2018-11-27T11:52:31.862Z,6.12
2018-11-27T11:53:30.908Z,6.06
2018-11-27T11:54:31.039Z,6.09
2018-11-27T11:55:31.166Z,6.15
2018-11-27T11:56:31.304Z,6.16
2018-11-27T11:57:31.437Z,6.28
2018-11-27T11:58:31.567Z,6.18
2018-11-27T11:59:31.699Z,6.38
2018-11-27T12:00:31.847Z,6.37
2018-11-27T12:01:31.979Z,6.24
2018-11-27T12:02:34.021Z,6.13
2018-11-27T12:03:32.273Z,6.13
2018-11-27T12:04:32.396Z,6.02
2018-11-27T12:05:32.525Z,6.18
2018-11-27T12:06:32.657Z,6.03
2018-11-27T12:07:32.791Z,6.16
2018-11-27T12:08:32.919Z,6.24
2018-11-27T12:09:33.045Z,6.11
2018-11-27T12:10:33.182Z,6.24
2018-11-27T12:11:33.312Z,6.11
2018-11-27T12:12:33.452Z,6.27
2018-11-27T12:13:33.578Z,6.27
2018-11-27T12:14:33.713Z,6.21
2018-11-27T12:15:33.843Z,6.15
2018-11-27T12:16:33.976Z,6.12
2018-11-27T12:17:34.109Z,6.15
2018-11-27T12:18:34.240Z,6.19
2018-11-27T12:19:34.372Z,6.12
2018-11-27T12:20:34.492Z,6.12
2018-11-27T12:21:34.638Z,6.15
2018-11-27T12:22:34.764Z,6.08
2018-11-27T12:23:34.897Z,6.02
2018-11-27T12:24:35.031Z,6.11
2018-11-27T12:25:35.166Z,6.18
2018-11-27T12:26:35.373Z,6.21
2018-11-27T12:27:35.378Z,6.19
2018-11-27T12:28:35.516Z,6.08
2018-11-27T12:29:35.653Z,6.09
2018-11-27T12:30:35.781Z,6.09
2018-11-27T12:31:35.911Z,6.09
2018-11-27T12:32:36.042Z,6.06
2018-11-27T12:33:36.173Z,6.05
2018-11-27T12:34:36.302Z,6.11
2018-11-27T12:35:36.430Z,6.09
2018-11-27T12:36:36.560Z,6.11
2018-11-27T12:37:36.736Z,6.13
2018-11-27T12:38:36.854Z,6.16
2018-11-27T12:39:36.985Z,6.12
2018-11-27T12:40:37.110Z,6.06
2018-11-27T12:41:37.265Z,6.21
2018-11-27T12:42:37.397Z,6.05
2018-11-27T12:43:37.533Z,6.03
2018-11-27T12:44:37.659Z,6.12
2018-11-27T12:45:37.799Z,6.18
2018-11-27T12:46:37.932Z,6.16
2018-11-27T12:47:38.067Z,6.19
2018-11-27T12:48:38.212Z,6.25
2018-11-27T12:49:38.336Z,6.16
2018-11-27T12:50:38.700Z,6.15
2018-11-27T12:51:38.595Z,6.13
2018-11-27T12:52:38.765Z,6.15
2018-11-27T12:53:38.881Z,6.16
2018-11-27T12:54:39.011Z,6.24
2018-11-27T12:55:39.145Z,6.16
2018-11-27T12:56:43.671Z,6.18
2018-11-27T12:57:39.427Z,6.27
2018-11-27T12:58:39.554Z,6.28
2018-11-27T12:59:40.025Z,6.18
2018-11-27T13:00:39.847Z,6.12
2018-11-27T13:01:39.975Z,5.98
2018-11-27T13:02:40.106Z,6.08
2018-11-27T13:03:40.407Z,6.02
2018-11-27T13:04:40.366Z,5.95
2018-11-27T13:05:40.486Z,5.97
2018-11-27T13:06:40.620Z,5.87
2018-11-27T13:07:40.751Z,5.90
2018-11-27T13:08:40.925Z,5.91
2018-11-27T13:09:41.008Z,5.91
2018-11-27T13:10:41.697Z,5.90
2018-11-27T13:11:41.326Z,5.88
2018-11-27T13:12:41.503Z,5.88
2018-11-27T13:13:41.862Z,5.93
2018-11-27T13:14:41.758Z,5.88
2018-11-27T13:15:41.906Z,5.84
2018-11-27T13:16:42.035Z,5.91
2018-11-27T13:17:42.168Z,5.97
2018-11-27T13:18:42.300Z,5.95
2018-11-27T13:19:42.431Z,5.95
2018-11-27T13:20:42.561Z,5.77
2018-11-27T13:21:42.682Z,5.67